Time;durP1;ratioP1;P1;durP2;ratioP2;P2;SDS_P1;SDS_P2;PMS_P1;PMS_P2;Temp;Humidity;BMP_temperature;BMP_pressure;BME280_temperature;BME280_humidity;BME280_pressure;Samples;Min_cycle;Max_cycle;Signal;HPM_P1;HPM_P2
2022/03/10 00:01:29;;;;;;;13.18;9.65;;;13.30;72.40;;;;;;5032479;28;20041;-64
2022/03/10 00:03:56;;;;;;;14.80;9.98;;;;;;;;;;5033232;28;20088;-65
2022/03/10 00:06:22;;;;;;;13.50;9.30;;;;;;;;;;5024511;28;20124;-64
2022/03/10 00:08:48;;;;;;;13.18;8.88;;;13.50;72.80;;;;;;5034125;28;20045;-65
2022/03/10 00:11:14;;;;;;;13.95;9.63;;;13.50;72.20;;;;;;5035778;28;20037;-64
2022/03/10 00:13:39;;;;;;;14.70;9.05;;;13.20;72.20;;;;;;5051358;28;20098;-65
2022/03/10 00:16:05;;;;;;;15.23;8.80;;;13.50;72.30;;;;;;5023254;28;20488;-65
2022/03/10 00:18:31;;;;;;;15.20;9.35;;;13.40;72.40;;;;;;5031636;28;20053;-65
2022/03/10 00:20:57;;;;;;;14.65;9.82;;;13.40;69.60;;;;;;5039676;28;20042;-65
2022/03/10 00:23:22;;;;;;;13.30;9.25;;;13.20;72.50;;;;;;5033102;28;20092;-65
2022/03/10 00:25:49;;;;;;;18.88;10.02;;;;;;;;;;5033444;28;20077;-66
2022/03/10 00:28:14;;;;;;;17.50;8.63;;;13.60;72.40;;;;;;5031188;28;20305;-65
2022/03/10 00:30:40;;;;;;;14.38;9.90;;;13.00;72.10;;;;;;5032619;28;20064;-65
2022/03/10 00:33:06;;;;;;;12.95;9.25;;;13.40;69.80;;;;;;5023254;28;20042;-64
2022/03/10 00:35:32;;;;;;;14.68;8.88;;;13.40;72.40;;;;;;5030189;28;20455;-64
2022/03/10 00:37:58;;;;;;;13.55;9.25;;;13.30;72.90;;;;;;5032882;28;20081;-65
2022/03/10 00:40:24;;;;;;;12.85;9.15;;;13.10;72.20;;;;;;5032027;28;20068;-65
2022/03/10 00:42:50;;;;;;;16.00;9.27;;;13.40;72.40;;;;;;5032515;28;20046;-65
2022/03/10 00:45:19;;;;;;;12.35;9.25;;;;;;;;;;5033222;28;20037;-65
2022/03/10 00:47:45;;;;;;;14.38;9.13;;;13.40;72.70;;;;;;5032815;28;20086;-65
2022/03/10 00:50:11;;;;;;;14.32;9.23;;;13.60;70.00;;;;;;5029312;28;20050;-65
2022/03/10 00:52:44;;;;;;;15.52;9.43;;;13.60;72.60;;;;;;5028326;28;20088;-64
2022/03/10 00:55:10;;;;;;;11.52;8.48;;;13.20;72.40;;;;;;5026360;28;20402;-65
2022/03/10 00:57:36;;;;;;;14.32;9.02;;;13.30;72.60;;;;;;5033147;28;20395;-65
2022/03/10 01:00:04;;;;;;;14.23;10.18;;;13.10;72.40;;;;;;5033044;28;20099;-65
2022/03/10 01:02:34;;;;;;;14.25;9.43;;;12.90;72.30;;;;;;5048165;28;20064;-65
2022/03/10 01:05:00;;;;;;;14.38;9.60;;;13.20;72.60;;;;;;5032720;28;20056;-64
2022/03/10 01:07:25;;;;;;;14.48;9.48;;;13.20;72.40;;;;;;5022787;28;20050;-65
2022/03/10 01:09:51;;;;;;;15.05;9.18;;;13.40;72.50;;;;;;5031680;28;20399;-65
2022/03/10 01:12:17;;;;;;;13.82;9.57;;;13.10;72.40;;;;;;5032809;28;20125;-65
2022/03/10 01:14:43;;;;;;;13.35;9.30;;;13.30;72.50;;;;;;5047115;28;20124;-65
2022/03/10 01:17:09;;;;;;;13.48;9.85;;;13.20;72.70;;;;;;5020893;28;20049;-65
2022/03/10 01:19:35;;;;;;;13.43;9.50;;;13.20;73.00;;;;;;5027324;28;20132;-65
2022/03/10 01:22:01;;;;;;;13.65;9.20;;;;;;;;;;5032605;28;20128;-65
2022/03/10 01:24:27;;;;;;;15.43;9.43;;;13.20;72.60;;;;;;5035635;28;20503;-64
2022/03/10 01:26:53;;;;;;;14.82;8.85;;;13.20;72.50;;;;;;5049520;28;20081;-66
2022/03/10 01:29:19;;;;;;;11.88;8.82;;;13.20;72.80;;;;;;5020415;28;20054;-65
2022/03/10 01:31:44;;;;;;;13.25;9.45;;;13.10;72.60;;;;;;5013965;28;20054;-64
2022/03/10 01:34:10;;;;;;;16.23;9.52;;;13.30;70.10;;;;;;5033073;28;20037;-65
2022/03/10 01:36:36;;;;;;;13.07;9.25;;;13.10;72.60;;;;;;5016938;28;20058;-65
2022/03/10 01:39:04;;;;;;;13.20;9.27;;;12.80;72.70;;;;;;5029653;28;20046;-65
2022/03/10 01:41:33;;;;;;;12.98;9.20;;;13.20;72.70;;;;;;5024455;28;20120;-65
2022/03/10 01:43:59;;;;;;;12.25;9.07;;;13.10;72.70;;;;;;5032080;28;20041;-65
2022/03/10 01:46:26;;;;;;;15.52;9.93;;;13.10;72.70;;;;;;5028005;28;20053;-62
2022/03/10 01:48:52;;;;;;;13.23;9.10;;;;;;;;;;5036058;28;20064;-63
2022/03/10 01:51:18;;;;;;;16.38;9.63;;;12.70;70.00;;;;;;5036359;28;20061;-64
2022/03/10 01:53:44;;;;;;;13.75;9.27;;;12.90;72.90;;;;;;5036331;28;20046;-65
2022/03/10 01:56:10;;;;;;;14.48;9.48;;;13.00;72.80;;;;;;5034415;28;20120;-65
2022/03/10 01:58:39;;;;;;;17.77;9.95;;;12.80;72.60;;;;;;5035242;28;20543;-62
2022/03/10 02:01:05;;;;;;;13.27;9.35;;;13.00;72.90;;;;;;5035268;28;20045;-65
2022/03/10 02:03:31;;;;;;;16.77;10.68;;;13.10;73.00;;;;;;5035641;28;20107;-65
2022/03/10 02:05:57;;;;;;;14.32;9.23;;;13.10;73.00;;;;;;5034445;28;20068;-65
2022/03/10 02:11:07;;;;;;;13.35;9.10;;;13.00;72.90;;;;;;5034188;28;20064;-65
2022/03/10 02:13:33;;;;;;;16.85;9.80;;;;;;;;;;5033724;28;20053;-65
2022/03/10 02:18:43;;;;;;;14.88;9.10;;;12.70;70.30;;;;;;5035323;28;20049;-65
2022/03/10 02:21:09;;;;;;;13.50;9.80;;;12.80;73.00;;;;;;5035864;28;20033;-65
2022/03/10 02:23:35;;;;;;;13.35;9.00;;;;;;;;;;5034237;28;20136;-65
2022/03/10 02:26:01;;;;;;;13.48;9.52;;;;;;;;;;5035528;28;20395;-65
2022/03/10 02:28:28;;;;;;;15.25;9.70;;;;;;;;;;5034015;28;20049;-66
2022/03/10 02:30:54;;;;;;;15.15;9.35;;;;;;;;;;5027775;28;20084;-62
2022/03/10 02:33:20;;;;;;;13.48;9.00;;;12.80;73.00;;;;;;5015064;28;20081;-62
2022/03/10 02:35:46;;;;;;;13.75;9.40;;;12.70;73.30;;;;;;5035781;28;20492;-65
2022/03/10 02:38:18;;;;;;;14.45;8.82;;;12.90;70.60;;;;;;5038447;28;20525;-65
2022/03/10 02:40:45;;;;;;;14.48;9.80;;;12.90;73.10;;;;;;5035002;28;20041;-65
2022/03/10 02:43:11;;;;;;;15.43;9.85;;;12.80;70.40;;;;;;5035462;28;20037;-65
2022/03/10 02:45:36;;;;;;;14.07;9.82;;;12.80;73.30;;;;;;5035023;28;20056;-64
2022/03/10 02:48:02;;;;;;;15.02;9.70;;;12.80;73.00;;;;;;5033681;28;20045;-65
2022/03/10 02:50:28;;;;;;;14.30;10.30;;;13.00;73.00;;;;;;5024126;28;20099;-65
2022/03/10 02:52:54;;;;;;;14.68;10.18;;;12.80;73.00;;;;;;5034036;28;20104;-65
2022/03/10 02:55:20;;;;;;;12.85;9.32;;;12.80;73.00;;;;;;5033332;28;20074;-64
2022/03/10 02:57:46;;;;;;;14.75;9.32;;;13.00;73.30;;;;;;5050445;28;20041;-66
2022/03/10 03:00:14;;;;;;;13.98;9.40;;;12.50;72.80;;;;;;5049642;28;20053;-65
2022/03/10 03:02:40;;;;;;;17.33;10.02;;;12.80;73.00;;;;;;5033620;28;20419;-64
2022/03/10 03:05:07;;;;;;;15.13;9.15;;;12.70;73.00;;;;;;5032925;28;20096;-64
2022/03/10 03:07:33;;;;;;;12.63;9.57;;;12.70;73.20;;;;;;5031110;28;20047;-61
2022/03/10 03:09:59;;;;;;;14.20;9.30;;;12.90;73.20;;;;;;5033625;28;20391;-61
2022/03/10 03:12:25;;;;;;;13.65;8.88;;;12.70;72.90;;;;;;5033003;28;20127;-65
2022/03/10 03:14:50;;;;;;;13.75;9.82;;;12.50;72.80;;;;;;5034694;28;20116;-64
2022/03/10 03:17:16;;;;;;;13.75;9.00;;;12.80;72.90;;;;;;5034768;28;20041;-65
2022/03/10 03:19:42;;;;;;;13.70;9.48;;;12.90;73.00;;;;;;5034000;28;20391;-65
2022/03/10 03:22:08;;;;;;;15.82;10.05;;;12.70;72.80;;;;;;5031985;28;20102;-65
2022/03/10 03:24:34;;;;;;;15.80;10.07;;;12.90;73.40;;;;;;5034713;28;20037;-66
2022/03/10 03:27:01;;;;;;;16.33;9.60;;;12.70;72.80;;;;;;5033897;28;20050;-65
2022/03/10 03:29:27;;;;;;;16.65;10.32;;;12.70;72.90;;;;;;5033333;28;20492;-65
2022/03/10 03:31:53;;;;;;;15.00;9.45;;;12.40;70.20;;;;;;5034231;28;20052;-65
2022/03/10 03:34:19;;;;;;;14.40;9.50;;;12.40;72.70;;;;;;5033705;28;20037;-65
2022/03/10 03:36:45;;;;;;;15.63;9.70;;;12.50;73.20;;;;;;5034227;28;20157;-64
2022/03/10 03:39:12;;;;;;;14.27;9.30;;;12.70;72.80;;;;;;5046056;28;20053;-65
2022/03/10 03:41:37;;;;;;;14.98;9.52;;;12.40;72.80;;;;;;5019227;28;20128;-64
2022/03/10 03:44:03;;;;;;;14.90;10.18;;;12.60;72.90;;;;;;5023988;28;20125;-65
2022/03/10 03:46:29;;;;;;;14.27;9.35;;;12.70;73.10;;;;;;5042513;28;20044;-66
2022/03/10 03:48:55;;;;;;;15.60;9.32;;;12.60;73.20;;;;;;5038304;28;20037;-65
2022/03/10 03:51:22;;;;;;;15.77;10.30;;;;;;;;;;5033850;28;20514;-65
2022/03/10 03:53:48;;;;;;;13.82;9.75;;;12.60;72.90;;;;;;5032852;28;20046;-65
2022/03/10 03:56:14;;;;;;;15.70;9.98;;;;;;;;;;5024845;28;20049;-65
2022/03/10 03:58:40;;;;;;;13.52;9.93;;;12.50;73.00;;;;;;5012510;28;20449;-66
2022/03/10 04:01:06;;;;;;;12.70;8.90;;;12.60;73.20;;;;;;5030375;28;20124;-64
2022/03/10 04:03:32;;;;;;;16.13;9.38;;;12.40;72.90;;;;;;5024926;28;20042;-64
2022/03/10 04:05:58;;;;;;;13.88;9.18;;;;;;;;;;5023298;28;20045;-65
2022/03/10 04:08:25;;;;;;;13.15;9.40;;;12.60;73.10;;;;;;5032226;28;20095;-64
2022/03/10 04:10:52;;;;;;;14.88;10.13;;;12.50;73.00;;;;;;5033625;28;20049;-65
2022/03/10 04:13:19;;;;;;;13.90;9.05;;;12.60;73.00;;;;;;5029834;28;20096;-65
2022/03/10 04:15:45;;;;;;;15.85;10.18;;;;;;;;;;5028618;28;20458;-65
2022/03/10 04:18:11;;;;;;;13.13;9.20;;;12.30;72.80;;;;;;5015897;28;20042;-64
2022/03/10 04:20:37;;;;;;;13.63;9.07;;;12.70;73.10;;;;;;5033238;28;20479;-65
2022/03/10 04:23:03;;;;;;;13.63;9.43;;;12.70;73.20;;;;;;5034076;28;20040;-65
2022/03/10 04:25:29;;;;;;;13.82;9.45;;;12.70;73.10;;;;;;5033199;28;20506;-65
2022/03/10 04:27:56;;;;;;;15.43;10.15;;;;;;;;;;5031573;28;20053;-65
2022/03/10 04:30:22;;;;;;;13.32;9.75;;;12.20;68.90;;;;;;5029164;28;20157;-65
2022/03/10 04:32:48;;;;;;;14.18;9.50;;;12.20;72.80;;;;;;5049124;28;20049;-66
2022/03/10 04:35:15;;;;;;;13.50;10.07;;;12.60;73.00;;;;;;5032569;28;20041;-65
2022/03/10 04:37:41;;;;;;;14.63;9.60;;;12.50;73.30;;;;;;5032467;28;20061;-65
2022/03/10 04:40:08;;;;;;;15.60;10.68;;;12.50;69.30;;;;;;5033663;28;20119;-65
2022/03/10 04:42:34;;;;;;;14.32;9.65;;;12.30;70.20;;;;;;5031232;28;20092;-65
2022/03/10 04:45:01;;;;;;;14.43;9.50;;;12.40;70.40;;;;;;5033243;28;20391;-65
2022/03/10 04:47:27;;;;;;;14.05;9.23;;;12.40;72.80;;;;;;5028750;28;20475;-64
2022/03/10 04:49:53;;;;;;;16.30;9.70;;;;;;;;;;5032924;28;20085;-65
2022/03/10 04:52:19;;;;;;;13.77;9.77;;;;;;;;;;5033273;28;20053;-65
2022/03/10 04:54:45;;;;;;;17.88;9.52;;;12.20;72.90;;;;;;5013871;28;20494;-65
2022/03/10 04:57:11;;;;;;;12.38;9.15;;;12.30;70.40;;;;;;5028632;28;20116;-65
2022/03/10 04:59:37;;;;;;;13.80;9.68;;;12.30;73.10;;;;;;5031568;28;20513;-64
2022/03/10 05:02:03;;;;;;;14.48;9.90;;;12.20;73.20;;;;;;5031215;28;20057;-67
2022/03/10 05:04:29;;;;;;;14.65;9.70;;;12.30;73.40;;;;;;5028786;28;20045;-65
2022/03/10 05:06:55;;;;;;;15.85;9.43;;;;;;;;;;5028582;28;20057;-66
2022/03/10 05:09:20;;;;;;;15.35;9.75;;;12.50;73.20;;;;;;5032752;28;20132;-64
2022/03/10 05:11:46;;;;;;;14.20;9.48;;;12.40;73.10;;;;;;5030436;28;20080;-64
2022/03/10 05:14:12;;;;;;;17.27;10.43;;;12.30;73.00;;;;;;5026596;28;20049;-65
2022/03/10 05:16:38;;;;;;;14.23;9.85;;;12.10;70.40;;;;;;5032785;28;20060;-65
2022/03/10 05:19:03;;;;;;;13.23;9.88;;;12.40;72.90;;;;;;5035664;28;20033;-65
2022/03/10 05:21:29;;;;;;;15.00;9.98;;;12.60;73.60;;;;;;5035936;28;20069;-65
2022/03/10 05:23:55;;;;;;;14.35;9.35;;;12.10;73.00;;;;;;5036317;28;20433;-64
2022/03/10 05:26:21;;;;;;;13.57;9.95;;;12.00;73.00;;;;;;5026977;28;20038;-66
2022/03/10 05:28:47;;;;;;;14.88;9.93;;;;;;;;;;5017216;28;20510;-65
2022/03/10 05:31:13;;;;;;;14.82;9.73;;;12.30;73.10;;;;;;5020830;28;20042;-66
2022/03/10 05:33:39;;;;;;;14.93;9.85;;;12.50;73.40;;;;;;5033252;28;20042;-61
2022/03/10 05:36:04;;;;;;;15.20;9.55;;;12.30;73.10;;;;;;5035979;28;20399;-65
2022/03/10 05:38:30;;;;;;;13.68;10.00;;;12.20;73.10;;;;;;5047258;28;20069;-65
2022/03/10 05:40:56;;;;;;;15.13;10.23;;;12.00;70.40;;;;;;5047460;28;20407;-65
2022/03/10 05:43:22;;;;;;;14.48;9.40;;;12.50;73.30;;;;;;5034656;28;20036;-64
2022/03/10 05:45:48;;;;;;;16.95;9.55;;;12.40;70.60;;;;;;5021717;28;20484;-65
2022/03/10 05:48:13;;;;;;;15.32;9.70;;;11.70;72.80;;;;;;5016712;28;20034;-65
2022/03/10 05:50:39;;;;;;;13.90;9.52;;;12.00;73.00;;;;;;5017182;28;20037;-65
2022/03/10 05:53:06;;;;;;;16.02;9.77;;;12.40;73.10;;;;;;5018740;28;20112;-65
2022/03/10 05:55:32;;;;;;;14.85;9.88;;;;;;;;;;5033198;28;20509;-65
2022/03/10 05:57:58;;;;;;;13.43;9.82;;;12.10;73.20;;;;;;5035540;28;20041;-66
2022/03/10 06:00:26;;;;;;;15.45;9.88;;;12.30;72.30;;;;;;5035092;28;20051;-65
2022/03/10 06:02:52;;;;;;;14.90;10.10;;;12.20;73.00;;;;;;5034444;28;20037;-65
2022/03/10 06:05:18;;;;;;;16.58;10.38;;;12.20;73.10;;;;;;5047082;28;20401;-66
2022/03/10 06:07:43;;;;;;;15.77;9.80;;;12.20;73.30;;;;;;5036283;28;20045;-65
2022/03/10 06:10:10;;;;;;;15.73;10.25;;;;;;;;;;5036487;28;20091;-65
2022/03/10 06:12:36;;;;;;;15.00;10.07;;;12.20;73.10;;;;;;5028780;28;20054;-65
2022/03/10 06:15:08;;;;;;;14.98;10.18;;;12.20;68.80;;;;;;5028382;28;20106;-65
2022/03/10 06:17:35;;;;;;;14.63;10.50;;;;;;;;;;5050638;28;20139;-66
2022/03/10 06:20:00;;;;;;;15.35;10.25;;;12.40;70.60;;;;;;5035957;28;20042;-64
2022/03/10 06:22:30;;;;;;;15.00;10.55;;;12.30;73.60;;;;;;5035911;28;20110;-64
2022/03/10 06:24:57;;;;;;;16.02;10.18;;;;;;;;;;5035156;28;20045;-64
2022/03/10 06:27:23;;;;;;;16.20;10.00;;;12.50;73.20;;;;;;5034875;28;20046;-65
2022/03/10 06:29:50;;;;;;;15.63;10.50;;;;;;;;;;5042775;28;20372;-65
2022/03/10 06:32:17;;;;;;;15.10;10.73;;;12.50;71.30;;;;;;5032119;28;20111;-65
2022/03/10 06:34:43;;;;;;;15.95;9.98;;;12.60;73.10;;;;;;5033940;28;20053;-66
2022/03/10 06:37:09;;;;;;;14.13;9.65;;;12.30;72.50;;;;;;5049453;28;20049;-64
2022/03/10 06:39:35;;;;;;;16.98;10.70;;;12.50;72.70;;;;;;5018117;28;20081;-65
2022/03/10 06:42:02;;;;;;;13.85;10.07;;;12.90;70.10;;;;;;5021929;28;20042;-65
2022/03/10 06:44:29;;;;;;;14.82;10.20;;;12.70;72.50;;;;;;5034512;28;20128;-64
2022/03/10 06:46:55;;;;;;;14.80;10.88;;;12.90;69.90;;;;;;5046537;28;20395;-64
2022/03/10 06:49:21;;;;;;;20.00;10.27;;;12.90;72.40;;;;;;5034793;28;20045;-64
2022/03/10 06:51:48;;;;;;;15.38;10.70;;;13.10;72.60;;;;;;5035664;28;20038;-64
2022/03/10 06:54:15;;;;;;;19.65;11.13;;;13.00;71.40;;;;;;5035144;28;20057;-65
2022/03/10 06:56:41;;;;;;;49.65;11.40;;;13.20;72.30;;;;;;5050408;28;20107;-65
2022/03/10 06:59:07;;;;;;;24.27;11.00;;;13.30;72.10;;;;;;5034487;28;20045;-64
2022/03/10 07:01:33;;;;;;;16.80;10.65;;;13.40;72.00;;;;;;5035123;28;20399;-64
2022/03/10 07:03:59;;;;;;;18.70;10.88;;;13.60;72.20;;;;;;5030668;28;20091;-65
2022/03/10 07:06:26;;;;;;;15.98;10.25;;;13.80;68.40;;;;;;5022962;28;20042;-65
2022/03/10 07:08:52;;;;;;;19.15;10.50;;;13.70;71.80;;;;;;5029237;28;20488;-64
2022/03/10 07:11:19;;;;;;;16.10;11.48;;;;;;;;;;5033035;28;20087;-65
2022/03/10 07:13:45;;;;;;;19.48;10.73;;;13.60;71.50;;;;;;5045331;28;20053;-65
2022/03/10 07:16:11;;;;;;;17.90;11.35;;;13.80;71.50;;;;;;5034232;28;20487;-64
2022/03/10 07:18:37;;;;;;;16.75;11.20;;;14.10;69.20;;;;;;5034672;28;20099;-64
2022/03/10 07:21:04;;;;;;;18.02;10.75;;;14.00;71.40;;;;;;5026906;28;20037;-65
2022/03/10 07:23:31;;;;;;;17.25;11.27;;;14.10;71.40;;;;;;5026456;28;20076;-64
2022/03/10 07:25:56;;;;;;;14.77;10.52;;;14.10;71.40;;;;;;5034432;28;20041;-64
2022/03/10 07:28:22;;;;;;;14.05;10.57;;;14.10;71.30;;;;;;5025819;28;20056;-65
2022/03/10 07:30:49;;;;;;;15.88;10.63;;;;;;;;;;5049988;28;20041;-64
2022/03/10 07:33:15;;;;;;;17.48;11.07;;;14.20;71.10;;;;;;5034900;28;20050;-68
2022/03/10 07:35:40;;;;;;;16.98;11.55;;;14.70;68.60;;;;;;5033488;28;20056;-64
2022/03/10 07:38:06;;;;;;;16.23;10.68;;;14.60;71.10;;;;;;5024092;28;20050;-66
2022/03/10 07:40:32;;;;;;;15.18;10.50;;;14.90;71.20;;;;;;5014689;28;20393;-65
2022/03/10 07:42:58;;;;;;;16.55;11.02;;;14.70;68.30;;;;;;5041405;28;20395;-62
2022/03/10 07:45:24;;;;;;;15.70;10.45;;;14.90;71.00;;;;;;5035001;28;20049;-64
2022/03/10 07:47:50;;;;;;;16.77;11.15;;;14.90;68.20;;;;;;5034701;28;20048;-61
2022/03/10 07:50:17;;;;;;;16.40;10.63;;;15.00;70.90;;;;;;5050478;28;20468;-62
2022/03/10 07:52:43;;;;;;;15.43;10.40;;;14.80;70.70;;;;;;5032675;28;20045;-62
2022/03/10 07:55:09;;;;;;;13.55;10.75;;;15.20;70.80;;;;;;5023886;28;20387;-61
2022/03/10 07:57:35;;;;;;;14.05;11.00;;;15.30;70.80;;;;;;5014436;28;20121;-64
2022/03/10 08:00:04;;;;;;;14.77;10.32;;;15.30;68.00;;;;;;5014759;28;20443;-64
2022/03/10 08:02:30;;;;;;;13.32;10.00;;;15.50;70.70;;;;;;5015433;28;20046;-64
2022/03/10 08:04:56;;;;;;;14.15;10.00;;;15.40;70.60;;;;;;5034331;28;20041;-64
2022/03/10 08:07:22;;;;;;;14.68;10.88;;;;;;;;;;5033583;28;20482;-64
2022/03/10 08:09:49;;;;;;;14.00;10.40;;;15.80;70.70;;;;;;5034279;28;20442;-64
2022/03/10 08:12:15;;;;;;;15.10;10.55;;;15.80;70.50;;;;;;5022288;28;20083;-63
2022/03/10 08:14:41;;;;;;;15.95;11.00;;;15.80;70.50;;;;;;5029603;28;20432;-64
2022/03/10 08:17:08;;;;;;;15.43;10.70;;;15.80;70.30;;;;;;5018097;28;20045;-62
2022/03/10 08:19:34;;;;;;;14.32;10.43;;;;;;;;;;5033692;28;20124;-62
2022/03/10 08:22:00;;;;;;;15.50;9.93;;;16.00;70.40;;;;;;5032559;28;20077;-61
2022/03/10 08:24:28;;;;;;;14.25;10.27;;;;;;;;;;5033599;28;20084;-61
2022/03/10 08:26:54;;;;;;;17.65;10.57;;;16.20;70.30;;;;;;5033723;28;20049;-62
2022/03/10 08:29:20;;;;;;;13.63;10.05;;;16.20;70.20;;;;;;5021806;28;20365;-62
2022/03/10 08:31:47;;;;;;;13.55;10.00;;;;;;;;;;5012698;28;20099;-64
2022/03/10 08:34:12;;;;;;;14.25;10.50;;;16.40;70.00;;;;;;5016096;28;20056;-63
2022/03/10 08:36:38;;;;;;;14.75;10.05;;;16.20;67.10;;;;;;5033083;28;20136;-64
2022/03/10 08:39:04;;;;;;;14.32;10.50;;;16.30;69.70;;;;;;5033111;28;20053;-62
2022/03/10 08:41:30;;;;;;;15.40;10.38;;;16.60;69.60;;;;;;5032384;28;20106;-63
2022/03/10 08:43:56;;;;;;;14.18;10.43;;;16.40;69.70;;;;;;5033593;28;20076;-61
2022/03/10 08:46:22;;;;;;;13.93;10.02;;;16.40;69.70;;;;;;5020908;28;20427;-61
2022/03/10 08:48:48;;;;;;;16.38;10.43;;;16.50;66.80;;;;;;5013914;28;20034;-62
2022/03/10 08:51:14;;;;;;;16.83;10.40;;;16.60;69.70;;;;;;5015664;28;20042;-62
2022/03/10 08:53:40;;;;;;;13.70;10.30;;;16.60;69.70;;;;;;5032818;28;20049;-63
2022/03/10 08:56:07;;;;;;;14.73;9.82;;;16.60;69.70;;;;;;5033393;28;20486;-61
2022/03/10 08:58:32;;;;;;;13.57;10.30;;;16.70;69.80;;;;;;5032070;28;20049;-63
2022/03/10 09:00:58;;;;;;;14.68;10.55;;;16.60;69.60;;;;;;5033274;28;20072;-62
2022/03/10 09:03:25;;;;;;;14.43;9.52;;;16.70;69.70;;;;;;5020331;28;20084;-63
2022/03/10 09:05:51;;;;;;;13.27;10.25;;;16.90;69.70;;;;;;5028503;28;20079;-65
2022/03/10 09:08:17;;;;;;;14.95;9.20;;;16.70;69.60;;;;;;5014080;28;20056;-66
2022/03/10 09:10:43;;;;;;;13.65;9.82;;;17.00;69.70;;;;;;5013754;28;20464;-63
2022/03/10 09:13:09;;;;;;;14.57;9.98;;;16.70;69.40;;;;;;5024049;28;20464;-67
2022/03/10 09:15:35;;;;;;;14.82;9.98;;;16.70;69.40;;;;;;5033577;28;20085;-66
2022/03/10 09:18:02;;;;;;;12.93;9.80;;;16.50;69.30;;;;;;5033125;28;20049;-63
2022/03/10 09:20:28;;;;;;;16.02;10.15;;;16.70;66.60;;;;;;5019225;28;20089;-67
2022/03/10 09:22:54;;;;;;;15.38;10.18;;;16.70;69.40;;;;;;5018172;28;20457;-67
2022/03/10 09:25:20;;;;;;;13.40;10.30;;;16.70;66.60;;;;;;5031611;28;20053;-63
2022/03/10 09:27:47;;;;;;;13.27;10.02;;;16.70;69.40;;;;;;5031787;28;20049;-67
2022/03/10 09:30:13;;;;;;;16.15;9.32;;;16.80;69.50;;;;;;5033062;28;20054;-63
2022/03/10 09:32:40;;;;;;;13.95;9.35;;;16.40;69.30;;;;;;5031802;28;20041;-65
2022/03/10 09:35:07;;;;;;;14.15;9.45;;;16.70;69.40;;;;;;5032538;28;20147;-66
2022/03/10 09:37:33;;;;;;;15.02;10.00;;;16.90;69.50;;;;;;5034297;28;20054;-64
2022/03/10 09:39:59;;;;;;;17.27;11.00;;;16.60;68.60;;;;;;5012228;28;20399;-62
2022/03/10 09:42:28;;;;;;;16.40;9.63;;;16.60;69.30;;;;;;5012040;28;20061;-63
2022/03/10 09:44:56;;;;;;;13.15;9.35;;;16.70;69.50;;;;;;5013363;28;20049;-63
2022/03/10 09:47:22;;;;;;;15.23;9.35;;;16.70;69.50;;;;;;5028194;28;20042;-63
2022/03/10 09:49:48;;;;;;;14.23;9.57;;;;;;;;;;5031707;28;20124;-63
2022/03/10 09:52:14;;;;;;;18.83;10.25;;;16.50;69.50;;;;;;5033011;28;20041;-62
2022/03/10 09:54:40;;;;;;;17.45;10.45;;;16.40;69.50;;;;;;5027011;28;20132;-63
2022/03/10 09:57:07;;;;;;;17.42;10.48;;;;;;;;;;5030978;28;20057;-62
2022/03/10 09:59:33;;;;;;;16.65;10.50;;;16.50;69.40;;;;;;5030028;28;20096;-65
2022/03/10 10:01:58;;;;;;;16.80;10.02;;;16.50;69.60;;;;;;5031047;28;20041;-65
2022/03/10 10:04:24;;;;;;;17.15;9.95;;;16.50;69.60;;;;;;5032646;28;20084;-65
2022/03/10 10:07:21;;;;;;;20.10;11.20;;;16.50;67.00;;;;;;5036302;28;20116;-65
2022/03/10 10:09:56;;;;;;;17.33;10.35;;;16.40;66.80;;;;;;4975100;28;20054;-66
2022/03/10 10:12:30;;;;;;;17.48;10.27;;;16.50;69.80;;;;;;4940597;29;20460;-65
2022/03/10 10:14:57;;;;;;;16.75;10.25;;;16.40;69.70;;;;;;4955925;29;20126;-65
2022/03/10 10:17:28;;;;;;;16.55;9.90;;;16.60;65.50;;;;;;4940542;29;20086;-66
2022/03/10 10:19:58;;;;;;;14.23;9.40;;;16.40;69.70;;;;;;4956005;29;20504;-65
2022/03/10 10:22:24;;;;;;;15.73;9.77;;;16.30;70.00;;;;;;4955881;29;20051;-64
2022/03/10 10:24:57;;;;;;;15.73;9.65;;;16.50;70.10;;;;;;4955854;29;20414;-65
2022/03/10 10:27:25;;;;;;;14.30;10.85;;;16.50;69.90;;;;;;4960159;28;20065;-64
2022/03/10 10:29:56;;;;;;;16.17;10.27;;;16.50;69.90;;;;;;4960123;28;20051;-66
2022/03/10 10:32:29;;;;;;;15.18;10.75;;;16.50;70.10;;;;;;4957902;28;20457;-65
2022/03/10 10:35:02;;;;;;;13.93;10.25;;;16.50;70.20;;;;;;4974885;28;20039;-66
2022/03/10 10:37:29;;;;;;;13.27;9.65;;;16.50;67.50;;;;;;4973914;28;20059;-65
2022/03/10 10:39:56;;;;;;;14.63;9.50;;;16.50;68.50;;;;;;4958520;28;20122;-65
2022/03/10 10:42:30;;;;;;;15.43;9.38;;;16.70;70.00;;;;;;4974711;28;20429;-65
2022/03/10 10:44:58;;;;;;;13.15;9.13;;;;;;;;;;4974579;28;20493;-64
2022/03/10 10:47:26;;;;;;;18.30;9.95;;;16.40;70.10;;;;;;5015847;28;20085;-65
2022/03/10 10:50:04;;;;;;;14.70;8.90;;;16.70;65.80;;;;;;5025404;28;20033;-65
2022/03/10 10:52:40;;;;;;;20.60;9.70;;;16.60;69.70;;;;;;5034410;28;20052;-66
2022/03/10 10:55:08;;;;;;;15.05;9.38;;;16.70;69.90;;;;;;5035016;28;20049;-65
2022/03/10 10:57:35;;;;;;;16.02;9.27;;;17.00;69.80;;;;;;5035591;28;20068;-66
2022/03/10 11:00:05;;;;;;;13.20;9.52;;;;;;;;;;5033926;28;20542;-65
2022/03/10 11:02:31;;;;;;;14.30;9.02;;;;;;;;;;5026180;28;20127;-64
2022/03/10 11:04:59;;;;;;;13.18;9.35;;;17.10;70.00;;;;;;5034469;28;20041;-66
2022/03/10 11:07:25;;;;;;;12.73;8.77;;;17.00;69.80;;;;;;5049391;28;20084;-66
2022/03/10 11:09:54;;;;;;;11.70;8.13;;;17.00;69.90;;;;;;5034052;28;20050;-65
2022/03/10 11:12:20;;;;;;;12.65;8.23;;;;;;;;;;5033118;28;20441;-65
2022/03/10 11:14:48;;;;;;;12.35;8.90;;;16.90;69.70;;;;;;5033824;28;20049;-63
2022/03/10 11:17:15;;;;;;;16.40;8.82;;;17.10;69.70;;;;;;5023307;28;20049;-65
2022/03/10 11:19:46;;;;;;;16.35;9.13;;;16.80;69.50;;;;;;5021840;28;20396;-63
2022/03/10 11:22:53;;;;;;;15.30;8.80;;;16.90;69.60;;;;;;5034766;28;20053;-63
2022/03/10 11:25:41;;;;;;;17.45;9.43;;;17.40;66.70;;;;;;4973999;28;20058;-64
2022/03/10 11:28:25;;;;;;;13.68;9.40;;;17.40;69.40;;;;;;4957733;28;20129;-64
2022/03/10 11:30:54;;;;;;;13.00;9.23;;;17.70;69.20;;;;;;4953875;28;20042;-63
2022/03/10 11:33:19;;;;;;;14.38;9.02;;;17.50;68.80;;;;;;4957671;28;20058;-64
2022/03/10 11:35:51;;;;;;;15.43;9.40;;;;;;;;;;4973897;28;20050;-64
2022/03/10 11:38:18;;;;;;;14.17;9.87;;;17.50;68.60;;;;;;4973626;28;20595;-64
2022/03/10 11:40:51;;;;;;;14.45;10.55;;;17.70;67.10;;;;;;4957285;28;20097;-64
2022/03/10 11:43:33;;;;;;;12.82;9.70;;;17.80;68.10;;;;;;4973148;28;20047;-65
2022/03/10 11:46:17;;;;;;;14.15;10.13;;;17.90;68.00;;;;;;4958954;28;20063;-65
2022/03/10 11:48:43;;;;;;;12.98;9.52;;;18.00;67.90;;;;;;4941659;28;20051;-65
2022/03/10 11:51:16;;;;;;;15.88;10.88;;;18.00;67.70;;;;;;4941597;28;20146;-65
2022/03/10 11:54:04;;;;;;;15.25;10.27;;;17.80;64.60;;;;;;4956565;28;20094;-66
2022/03/10 11:56:45;;;;;;;15.10;10.50;;;17.70;67.20;;;;;;4956794;28;20415;-65
2022/03/10 11:59:27;;;;;;;16.00;11.02;;;18.00;67.10;;;;;;4992273;28;20054;-64
2022/03/10 12:01:53;;;;;;;14.07;10.05;;;17.90;65.50;;;;;;5013236;28;20136;-65
2022/03/10 12:04:23;;;;;;;12.70;9.60;;;18.10;66.90;;;;;;5020627;28;20034;-65
2022/03/10 12:06:58;;;;;;;15.50;10.82;;;17.90;62.10;;;;;;5031446;28;20046;-65
2022/03/10 12:09:30;;;;;;;16.75;10.18;;;18.10;66.70;;;;;;5027009;28;20104;-65
2022/03/10 12:12:15;;;;;;;16.45;10.68;;;17.90;62.20;;;;;;5020069;28;20053;-66
2022/03/10 12:14:41;;;;;;;16.88;10.25;;;18.10;66.60;;;;;;5033045;28;20116;-65
2022/03/10 12:17:45;;;;;;;15.55;10.07;;;17.90;62.10;;;;;;5034107;28;20140;-65
2022/03/10 12:20:14;;;;;;;;;;;18.20;63.10;;;;;;5029336;28;20053;-65
2022/03/10 12:22:40;;;;;;;13.82;10.13;;;18.20;66.30;;;;;;5016091;28;20366;-65
2022/03/10 12:25:20;;;;;;;15.68;11.02;;;18.00;66.10;;;;;;5033827;28;20069;-64
2022/03/10 12:27:55;;;;;;;15.10;10.65;;;18.10;66.00;;;;;;5042704;28;20450;-64
2022/03/10 12:30:25;;;;;;;18.63;11.25;;;18.00;66.00;;;;;;5029521;28;20108;-65
2022/03/10 12:32:52;;;;;;;15.68;10.65;;;18.50;63.40;;;;;;5012936;28;20046;-64
2022/03/10 12:35:27;;;;;;;16.52;10.57;;;18.40;65.80;;;;;;5012482;28;20058;-65
2022/03/10 12:37:53;;;;;;;14.77;10.63;;;18.30;65.90;;;;;;5013826;28;20418;-66
2022/03/10 12:40:27;;;;;;;15.30;10.68;;;18.30;65.40;;;;;;5013498;28;20050;-64
2022/03/10 12:43:00;;;;;;;16.90;11.00;;;18.50;61.00;;;;;;5012488;28;20042;-65
2022/03/10 12:45:26;;;;;;;15.93;11.05;;;;;;;;;;5015052;28;20053;-67
2022/03/10 12:48:01;;;;;;;17.83;10.90;;;;;;;;;;5014293;28;20403;-64
2022/03/10 12:50:27;;;;;;;19.45;11.68;;;18.40;62.60;;;;;;5032681;28;20517;-64
2022/03/10 12:52:55;;;;;;;18.35;10.50;;;18.30;65.60;;;;;;5032615;28;20041;-65